createdAt,value
2022-10-08T00:00:25.478Z,13.21
2022-10-08T00:02:55.231Z,13.07
2022-10-08T00:05:24.440Z,12.96
2022-10-08T00:07:53.967Z,12.83
2022-10-08T00:10:23.182Z,12.60
2022-10-08T00:12:52.408Z,12.52
2022-10-08T00:15:21.641Z,12.48
2022-10-08T00:17:51.381Z,12.47
2022-10-08T00:20:22.059Z,12.44
2022-10-08T00:22:51.402Z,12.34
2022-10-08T00:25:20.783Z,12.30
2022-10-08T00:27:51.179Z,12.29
2022-10-08T00:30:20.773Z,12.28
2022-10-08T00:32:51.035Z,12.24
2022-10-08T00:35:20.268Z,12.25
2022-10-08T00:37:49.642Z,12.21
2022-10-08T00:40:19.023Z,12.21
2022-10-08T00:42:49.062Z,12.21
2022-10-08T00:45:18.614Z,12.19
2022-10-08T00:47:49.729Z,12.17
2022-10-08T00:50:25.173Z,12.19
2022-10-08T00:53:00.000Z,12.19
2022-10-08T00:55:30.478Z,12.17
2022-10-08T00:58:03.420Z,12.15
2022-10-08T01:00:33.468Z,12.09
2022-10-08T01:03:03.880Z,12.00
2022-10-08T01:05:39.429Z,11.96
2022-10-08T01:08:17.600Z,11.93
2022-10-08T01:11:01.879Z,11.94
2022-10-08T01:13:46.256Z,11.88
2022-10-08T01:16:39.111Z,11.86
2022-10-08T01:19:17.804Z,11.84
2022-10-08T01:21:56.112Z,11.81
2022-10-08T01:24:58.456Z,11.81
2022-10-08T01:27:43.243Z,11.80
2022-10-08T01:30:14.857Z,11.79
2022-10-08T01:32:48.698Z,11.79
2022-10-08T01:35:27.467Z,11.77
2022-10-08T01:37:59.198Z,11.76
2022-10-08T01:40:30.822Z,11.78
2022-10-08T01:43:01.738Z,11.79
2022-10-08T01:45:34.205Z,11.82
2022-10-08T01:48:09.169Z,11.80
2022-10-08T01:50:44.444Z,11.81
2022-10-08T01:53:15.805Z,11.77
2022-10-08T01:55:53.680Z,11.74
2022-10-08T01:58:27.867Z,11.76
2022-10-08T02:01:00.196Z,11.71
2022-10-08T02:03:29.583Z,11.68
2022-10-08T02:06:00.449Z,11.66
2022-10-08T02:08:29.912Z,11.66
2022-10-08T02:10:59.159Z,11.59
2022-10-08T02:13:28.548Z,11.55
2022-10-08T02:16:11.307Z,11.52
2022-10-08T02:18:44.493Z,11.53
2022-10-08T02:21:25.934Z,11.53
2022-10-08T02:23:58.459Z,11.48
2022-10-08T02:26:30.855Z,11.49
2022-10-08T02:29:06.277Z,11.49
2022-10-08T02:31:41.709Z,11.49
2022-10-08T02:34:14.016Z,11.47
2022-10-08T02:36:46.297Z,11.48
2022-10-08T02:39:17.116Z,11.48
2022-10-08T02:41:49.587Z,11.49
2022-10-08T02:44:37.000Z,11.52
2022-10-08T02:47:08.823Z,11.51
2022-10-08T02:49:41.234Z,11.50
2022-10-08T02:52:10.983Z,11.46
2022-10-08T02:54:42.544Z,11.44
2022-10-08T02:57:18.489Z,11.40
2022-10-08T02:59:48.807Z,11.35
2022-10-08T03:02:20.983Z,11.35
2022-10-08T03:04:52.966Z,11.31
2022-10-08T03:07:24.216Z,11.30
2022-10-08T03:09:55.119Z,11.26
2022-10-08T03:12:25.462Z,11.25
2022-10-08T03:14:54.836Z,11.20
2022-10-08T03:17:38.104Z,11.24
2022-10-08T03:20:08.467Z,11.19
2022-10-08T03:22:38.179Z,11.17
2022-10-08T03:25:07.694Z,11.11
2022-10-08T03:27:37.091Z,11.05
2022-10-08T03:30:07.621Z,11.01
2022-10-08T03:32:36.984Z,10.97
2022-10-08T03:35:06.674Z,10.96
2022-10-08T03:37:36.307Z,10.93
2022-10-08T03:40:06.332Z,10.90
2022-10-08T03:42:35.701Z,10.86
2022-10-08T03:45:05.658Z,10.87
2022-10-08T03:47:34.927Z,10.80
2022-10-08T03:50:04.496Z,10.82
2022-10-08T03:52:33.831Z,10.76
2022-10-08T03:55:03.123Z,10.71
2022-10-08T03:57:32.590Z,10.73
2022-10-08T04:00:01.813Z,10.70
2022-10-08T04:02:35.855Z,10.70
2022-10-08T04:05:05.491Z,10.69
2022-10-08T04:07:34.909Z,10.66
2022-10-08T04:10:04.379Z,10.68
2022-10-08T04:12:33.842Z,10.69
2022-10-08T04:15:03.066Z,10.69
2022-10-08T04:17:32.362Z,10.65
2022-10-08T04:20:01.633Z,10.63
2022-10-08T04:22:31.192Z,10.64
2022-10-08T04:25:00.478Z,10.62
2022-10-08T04:27:29.821Z,10.58
2022-10-08T04:29:59.211Z,10.57
2022-10-08T04:32:30.885Z,10.58
2022-10-08T04:35:00.151Z,10.56
2022-10-08T04:37:29.666Z,10.58
2022-10-08T04:39:59.033Z,10.61
2022-10-08T04:42:28.263Z,10.58
2022-10-08T04:44:57.647Z,10.54
2022-10-08T04:47:26.872Z,10.52
2022-10-08T04:49:56.366Z,10.53
2022-10-08T04:52:25.861Z,10.55
2022-10-08T04:54:55.261Z,10.51
2022-10-08T04:57:24.556Z,10.50
2022-10-08T05:00:17.075Z,10.52
2022-10-08T05:02:24.982Z,10.50
2022-10-08T05:04:54.432Z,10.53
2022-10-08T05:07:24.469Z,10.55
2022-10-08T05:09:53.980Z,10.57
2022-10-08T05:12:23.232Z,10.52
2022-10-08T05:14:52.749Z,10.51
2022-10-08T05:17:21.993Z,10.48
2022-10-08T05:19:51.213Z,10.48
2022-10-08T05:22:20.639Z,10.46
2022-10-08T05:24:50.072Z,10.42
2022-10-08T05:27:19.429Z,10.42
2022-10-08T05:29:48.678Z,10.38
2022-10-08T05:32:18.174Z,10.38
2022-10-08T05:34:47.508Z,10.36
2022-10-08T05:37:16.825Z,10.33
2022-10-08T05:39:46.081Z,10.30
2022-10-08T05:42:15.454Z,10.28
2022-10-08T05:44:45.571Z,10.28
2022-10-08T05:47:14.955Z,10.28
2022-10-08T05:49:44.362Z,10.34
2022-10-08T05:52:13.807Z,10.30
2022-10-08T05:54:43.162Z,10.30
2022-10-08T05:57:12.725Z,10.32
2022-10-08T05:59:42.099Z,10.38
2022-10-08T06:02:12.830Z,10.36
2022-10-08T06:04:42.238Z,10.33
2022-10-08T06:07:11.725Z,10.35
2022-10-08T06:09:40.964Z,10.32
2022-10-08T06:12:10.382Z,10.34
2022-10-08T06:14:39.666Z,10.34
2022-10-08T06:17:09.145Z,10.48
2022-10-08T06:19:38.434Z,10.48
2022-10-08T06:22:07.965Z,10.46
2022-10-08T06:24:37.207Z,10.53
2022-10-08T06:27:06.465Z,10.55
2022-10-08T06:29:35.665Z,10.58
2022-10-08T06:32:05.022Z,10.62
2022-10-08T06:34:34.471Z,10.63
2022-10-08T06:37:03.957Z,10.67
2022-10-08T06:39:33.353Z,10.71
2022-10-08T06:42:02.594Z,10.74
2022-10-08T06:44:33.603Z,10.80
2022-10-08T06:47:03.052Z,10.82
2022-10-08T06:49:32.411Z,10.85
2022-10-08T06:52:01.802Z,11.12
2022-10-08T06:54:31.027Z,11.14
2022-10-08T06:57:00.466Z,11.17
2022-10-08T06:59:29.897Z,11.22
2022-10-08T07:01:59.317Z,11.80
2022-10-08T07:04:28.599Z,12.74
2022-10-08T07:06:57.928Z,12.65
2022-10-08T07:09:27.137Z,12.10
2022-10-08T07:11:56.515Z,11.83
2022-10-08T07:14:25.870Z,11.52
2022-10-08T07:16:55.308Z,11.44
2022-10-08T07:19:25.224Z,11.48
2022-10-08T07:21:57.889Z,11.62
2022-10-08T07:24:25.486Z,11.83
2022-10-08T07:26:54.952Z,12.05
2022-10-08T07:29:25.877Z,11.94
2022-10-08T07:31:55.551Z,11.83
2022-10-08T07:34:24.929Z,11.76
2022-10-08T07:36:54.341Z,11.82
2022-10-08T07:39:23.649Z,11.91
2022-10-08T07:41:52.949Z,12.00
2022-10-08T07:44:22.204Z,12.03
2022-10-08T07:46:53.766Z,12.12
2022-10-08T07:49:22.969Z,12.27
2022-10-08T07:51:52.248Z,12.42
2022-10-08T07:54:21.543Z,12.54
2022-10-08T07:56:50.915Z,12.62
2022-10-08T07:59:20.141Z,12.69
2022-10-08T08:01:49.618Z,12.77
2022-10-08T08:04:18.884Z,12.86
2022-10-08T08:06:48.931Z,12.92
2022-10-08T08:09:18.635Z,12.99
2022-10-08T08:11:49.515Z,13.12
2022-10-08T08:14:19.770Z,13.20
2022-10-08T08:16:49.349Z,13.35
2022-10-08T08:19:18.780Z,13.73
2022-10-08T08:21:48.012Z,14.23
2022-10-08T08:24:17.474Z,14.75
2022-10-08T08:26:46.971Z,15.51
2022-10-08T08:29:19.917Z,15.12
2022-10-08T08:31:50.169Z,14.60
2022-10-08T08:34:22.632Z,14.37
2022-10-08T08:36:54.945Z,15.02
2022-10-08T08:39:27.681Z,16.18
2022-10-08T08:42:18.360Z,16.81
2022-10-08T08:44:53.097Z,17.37
2022-10-08T08:47:34.052Z,18.13
2022-10-08T08:50:21.337Z,19.64
2022-10-08T08:52:50.729Z,20.93
2022-10-08T08:55:23.376Z,21.91
2022-10-08T08:58:01.516Z,21.12
2022-10-08T09:00:33.979Z,20.94
2022-10-08T09:03:21.291Z,18.12
2022-10-08T09:05:53.934Z,18.12
2022-10-08T09:08:45.664Z,18.33
2022-10-08T09:11:17.307Z,19.55
2022-10-08T09:13:51.966Z,18.41
2022-10-08T09:16:21.286Z,20.53
2022-10-08T09:18:52.417Z,21.58
2022-10-08T09:21:22.386Z,19.39
2022-10-08T09:23:51.628Z,19.39
2022-10-08T09:26:23.517Z,19.56
2022-10-08T09:28:58.060Z,18.32
2022-10-08T09:31:39.318Z,19.59
2022-10-08T09:34:15.826Z,19.66
2022-10-08T09:36:47.707Z,19.97
2022-10-08T09:39:25.508Z,18.95
2022-10-08T09:42:14.022Z,19.02
2022-10-08T09:44:51.594Z,20.92
2022-10-08T09:47:23.066Z,19.15
2022-10-08T09:50:07.704Z,21.62
2022-10-08T09:52:37.938Z,21.13
2022-10-08T09:55:13.542Z,21.57
2022-10-08T09:57:45.022Z,22.00
2022-10-08T10:00:31.506Z,20.46
2022-10-08T10:03:01.961Z,20.73
2022-10-08T10:05:34.286Z,20.02
2022-10-08T10:08:03.935Z,20.69
2022-10-08T10:10:38.870Z,19.92
2022-10-08T10:13:13.317Z,20.29
2022-10-08T10:15:51.590Z,19.88
2022-10-08T10:18:23.234Z,17.56
2022-10-08T10:20:57.643Z,17.00
2022-10-08T10:23:41.759Z,20.04
2022-10-08T10:26:14.359Z,18.80
2022-10-08T10:28:55.924Z,20.88
2022-10-08T10:31:43.615Z,20.96
2022-10-08T10:34:21.791Z,21.14
2022-10-08T10:36:53.018Z,21.14
2022-10-08T10:39:33.609Z,21.30
2022-10-08T10:42:22.451Z,21.30
2022-10-08T10:45:04.488Z,22.39
2022-10-08T10:47:33.877Z,23.06
2022-10-08T10:50:03.625Z,20.84
2022-10-08T10:52:38.802Z,20.60
2022-10-08T10:55:22.986Z,21.80
2022-10-08T10:58:15.982Z,21.28
2022-10-08T11:07:34.437Z,20.71
2022-10-08T11:10:21.770Z,20.32
2022-10-08T11:12:56.567Z,20.83
2022-10-08T11:15:40.677Z,20.67
2022-10-08T11:18:27.928Z,20.98
2022-10-08T11:21:21.174Z,20.98
2022-10-08T11:24:28.606Z,22.54
2022-10-08T11:27:03.740Z,20.76
2022-10-08T11:29:55.343Z,21.63
2022-10-08T11:32:26.897Z,23.39
2022-10-08T11:35:05.208Z,23.18
2022-10-08T11:37:37.585Z,19.61
2022-10-08T11:40:30.951Z,20.28
2022-10-08T11:43:27.712Z,21.03
2022-10-08T11:46:22.722Z,21.03
2022-10-08T11:48:52.113Z,20.94
2022-10-08T11:51:24.758Z,19.80
2022-10-08T11:54:13.176Z,19.72
2022-10-08T11:56:53.233Z,18.41
2022-10-08T11:59:31.563Z,18.77
2022-10-08T12:02:25.410Z,18.17
2022-10-08T12:04:57.056Z,20.07
2022-10-08T12:07:34.177Z,20.52
2022-10-08T12:10:09.614Z,20.85
2022-10-08T12:12:55.942Z,20.20
2022-10-08T12:15:28.949Z,19.84
2022-10-08T12:18:00.919Z,19.30
2022-10-08T12:20:33.738Z,19.38
2022-10-08T12:23:10.820Z,18.99
2022-10-08T12:25:49.424Z,17.69
2022-10-08T12:28:24.989Z,19.14
2022-10-08T12:30:56.231Z,19.08
2022-10-08T12:33:26.757Z,18.39
2022-10-08T12:36:10.839Z,18.73
2022-10-08T12:38:52.480Z,18.53
2022-10-08T12:41:26.675Z,18.88
2022-10-08T12:44:15.889Z,18.72
2022-10-08T12:47:05.280Z,20.09
2022-10-08T12:49:49.646Z,19.85
2022-10-08T12:52:20.579Z,20.27
2022-10-08T12:54:57.972Z,19.89
2022-10-08T12:57:35.658Z,19.91
2022-10-08T13:00:14.249Z,18.59
2022-10-08T13:02:43.798Z,18.32
2022-10-08T13:05:31.403Z,19.01
2022-10-08T13:08:03.872Z,18.64
2022-10-08T13:10:32.395Z,19.58
2022-10-08T13:13:06.547Z,18.98
2022-10-08T13:15:36.367Z,18.44
2022-10-08T13:18:17.058Z,18.29
2022-10-08T13:21:00.292Z,19.37
2022-10-08T13:23:41.661Z,17.31
2022-10-08T13:26:39.276Z,17.38
2022-10-08T13:29:26.749Z,17.49
2022-10-08T13:32:08.794Z,17.70
2022-10-08T13:34:43.090Z,17.72
2022-10-08T13:37:14.728Z,17.21
2022-10-08T13:40:01.358Z,18.04
2022-10-08T13:42:42.445Z,17.46
2022-10-08T13:45:22.666Z,17.22
2022-10-08T13:47:52.430Z,18.29
2022-10-08T13:50:22.942Z,17.68
2022-10-08T13:52:55.088Z,16.89
2022-10-08T13:55:32.454Z,15.98
2022-10-08T13:58:03.325Z,15.74
2022-10-08T14:00:35.610Z,15.34
2022-10-08T14:03:04.917Z,15.51
2022-10-08T14:05:38.422Z,15.38
2022-10-08T14:08:23.055Z,16.20
2022-10-08T14:10:54.477Z,15.80
2022-10-08T14:13:24.058Z,16.37
2022-10-08T14:15:53.504Z,16.14
2022-10-08T14:18:23.285Z,16.00
2022-10-08T14:20:52.849Z,16.21
2022-10-08T14:23:22.135Z,16.15
2022-10-08T14:25:53.769Z,16.10
2022-10-08T14:28:23.292Z,15.93
2022-10-08T14:30:52.844Z,16.27
2022-10-08T14:33:22.210Z,15.65
2022-10-08T14:35:53.057Z,15.91
2022-10-08T14:38:22.452Z,15.92
2022-10-08T14:40:51.920Z,15.80
2022-10-08T14:43:22.053Z,15.65
2022-10-08T14:45:51.554Z,15.47
2022-10-08T14:48:20.969Z,15.68
2022-10-08T14:50:50.277Z,15.48
2022-10-08T14:53:19.658Z,15.45
2022-10-08T14:56:10.949Z,15.58
2022-10-08T14:58:20.739Z,15.05
2022-10-08T15:00:55.004Z,14.95
2022-10-08T15:03:24.589Z,14.98
2022-10-08T15:05:54.812Z,14.94
2022-10-08T15:08:24.113Z,14.76
2022-10-08T15:10:53.541Z,14.79
2022-10-08T15:13:23.142Z,15.07
2022-10-08T15:15:52.363Z,14.87
2022-10-08T15:18:21.757Z,14.72
2022-10-08T15:21:01.694Z,14.62
2022-10-08T15:23:31.226Z,14.21
2022-10-08T15:26:02.266Z,14.18
2022-10-08T15:28:32.292Z,14.26
2022-10-08T15:31:04.014Z,14.24
2022-10-08T15:33:38.640Z,14.15
2022-10-08T15:36:28.582Z,14.26
2022-10-08T15:39:03.126Z,14.39
2022-10-08T15:41:36.923Z,14.35
2022-10-08T15:44:18.550Z,14.31
2022-10-08T15:46:48.755Z,14.30
2022-10-08T15:49:18.280Z,14.17
2022-10-08T15:51:47.503Z,14.09
2022-10-08T15:54:17.128Z,14.07
2022-10-08T15:56:46.338Z,13.99
2022-10-08T15:59:15.576Z,13.86
2022-10-08T16:01:44.855Z,13.77
2022-10-08T16:04:15.121Z,13.68
2022-10-08T16:06:45.968Z,13.68
2022-10-08T16:09:16.341Z,13.55
2022-10-08T16:11:46.277Z,13.52
2022-10-08T16:14:21.069Z,13.40
2022-10-08T16:16:51.280Z,13.33
2022-10-08T16:19:22.919Z,13.28
2022-10-08T16:21:53.264Z,13.31
2022-10-08T16:24:23.009Z,13.23
2022-10-08T16:26:52.545Z,13.25
2022-10-08T16:29:22.100Z,13.28
2022-10-08T16:31:51.336Z,13.23
2022-10-08T16:34:26.690Z,13.17
2022-10-08T16:36:57.842Z,13.11
2022-10-08T16:39:27.925Z,13.07
2022-10-08T16:41:57.115Z,13.19
2022-10-08T16:44:26.344Z,13.01
2022-10-08T16:46:55.583Z,13.00
2022-10-08T16:49:27.427Z,12.95
2022-10-08T16:51:59.628Z,12.87
2022-10-08T16:54:29.510Z,12.79
2022-10-08T16:56:58.986Z,12.72
2022-10-08T16:59:29.745Z,12.71
2022-10-08T17:02:00.360Z,12.69
2022-10-08T17:04:32.663Z,12.63
2022-10-08T17:07:01.939Z,12.60
2022-10-08T17:09:32.399Z,12.55
2022-10-08T17:12:01.974Z,12.55
2022-10-08T17:14:33.145Z,12.49
2022-10-08T17:17:02.484Z,12.49
2022-10-08T17:19:31.685Z,12.42
2022-10-08T17:22:01.123Z,12.35
2022-10-08T17:24:30.333Z,12.45
2022-10-08T17:26:59.556Z,12.42
2022-10-08T17:29:28.906Z,12.40
2022-10-08T17:31:59.823Z,12.35
2022-10-08T17:34:29.471Z,12.33
2022-10-08T17:36:58.969Z,12.33
2022-10-08T17:39:28.479Z,12.30
2022-10-08T17:41:57.883Z,12.37
2022-10-08T17:44:27.242Z,12.27
2022-10-08T17:46:56.695Z,12.23
2022-10-08T17:49:26.143Z,12.27
2022-10-08T17:51:55.560Z,12.24
2022-10-08T17:54:25.104Z,12.15
2022-10-08T17:56:54.824Z,12.07
2022-10-08T17:59:24.117Z,11.93
2022-10-08T18:01:53.592Z,11.84
2022-10-08T18:04:23.146Z,11.69
2022-10-08T18:06:52.644Z,11.58
2022-10-08T18:09:22.332Z,11.44
2022-10-08T18:11:53.524Z,11.35
2022-10-08T18:14:23.530Z,11.25
2022-10-08T18:16:52.939Z,11.17
2022-10-08T18:19:22.435Z,11.08
2022-10-08T18:21:51.954Z,11.02
2022-10-08T18:24:21.438Z,10.94
2022-10-08T18:26:51.674Z,10.88
2022-10-08T18:29:21.168Z,10.83
2022-10-08T18:31:50.978Z,10.78
2022-10-08T18:34:21.064Z,10.73
2022-10-08T18:36:50.426Z,10.67
2022-10-08T18:39:26.095Z,10.62
2022-10-08T18:41:52.609Z,10.57
2022-10-08T18:44:24.071Z,10.57
2022-10-08T18:46:53.874Z,10.50
2022-10-08T18:49:28.100Z,10.49
2022-10-08T18:51:58.251Z,10.49
2022-10-08T18:54:27.585Z,10.46
2022-10-08T18:56:59.140Z,10.39
2022-10-08T18:59:28.529Z,10.37
2022-10-08T19:01:59.585Z,10.37
2022-10-08T19:04:29.105Z,10.37
2022-10-08T19:06:58.691Z,10.32
2022-10-08T19:09:27.998Z,10.25
2022-10-08T19:11:57.756Z,10.23
2022-10-08T19:14:28.281Z,10.17
2022-10-08T19:16:58.373Z,10.12
2022-10-08T19:19:29.586Z,10.08
2022-10-08T19:22:02.306Z,10.04
2022-10-08T19:24:31.710Z,10.00
2022-10-08T19:27:01.074Z,9.95
2022-10-08T19:29:32.326Z,9.95
2022-10-08T19:32:01.741Z,9.94
2022-10-08T19:34:31.035Z,9.93
2022-10-08T19:37:00.642Z,9.92
2022-10-08T19:39:31.030Z,9.88
2022-10-08T19:42:00.489Z,9.80
2022-10-08T19:44:29.751Z,9.74
2022-10-08T19:46:59.203Z,9.71
2022-10-08T19:49:28.445Z,9.69
2022-10-08T19:51:57.757Z,9.70
2022-10-08T19:54:27.068Z,9.70
2022-10-08T19:56:56.481Z,9.73
2022-10-08T19:59:25.783Z,9.71
2022-10-08T20:01:55.202Z,9.68
2022-10-08T20:04:24.627Z,9.67
2022-10-08T20:06:53.968Z,9.60
2022-10-08T20:09:23.536Z,9.53
2022-10-08T20:11:55.230Z,9.52
2022-10-08T20:14:24.597Z,9.50
2022-10-08T20:16:53.852Z,9.48
2022-10-08T20:19:23.881Z,9.46
2022-10-08T20:21:56.690Z,9.44
2022-10-08T20:24:26.391Z,9.44
2022-10-08T20:26:55.635Z,9.40
2022-10-08T20:29:29.995Z,9.39
2022-10-08T20:31:57.421Z,9.41
2022-10-08T20:34:29.580Z,9.42
2022-10-08T20:37:00.910Z,9.39
2022-10-08T20:39:30.901Z,9.38
2022-10-08T20:42:00.187Z,9.39
2022-10-08T20:44:29.516Z,9.33
2022-10-08T20:47:00.608Z,9.30
2022-10-08T20:49:31.629Z,9.28
2022-10-08T20:52:00.988Z,9.26
2022-10-08T20:54:30.444Z,9.17
2022-10-08T20:56:59.689Z,9.14
2022-10-08T20:59:29.102Z,9.12
2022-10-08T21:01:58.678Z,9.13
2022-10-08T21:04:28.257Z,9.06
2022-10-08T21:06:57.533Z,9.01
2022-10-08T21:09:26.924Z,9.01
2022-10-08T21:11:56.184Z,9.00
2022-10-08T21:14:25.598Z,8.95
2022-10-08T21:16:54.841Z,8.93
2022-10-08T21:19:24.306Z,8.90
2022-10-08T21:21:53.544Z,8.92
2022-10-08T21:24:22.935Z,8.90
2022-10-08T21:26:52.166Z,8.88
2022-10-08T21:29:21.458Z,8.84
2022-10-08T21:31:50.902Z,8.84
2022-10-08T21:34:20.475Z,8.83
2022-10-08T21:36:50.070Z,8.79
2022-10-08T21:39:19.322Z,8.75
2022-10-08T21:41:48.664Z,8.69
2022-10-08T21:44:18.136Z,8.62
2022-10-08T21:46:47.386Z,8.59
2022-10-08T21:49:20.460Z,8.57
2022-10-08T21:51:49.682Z,8.56
2022-10-08T21:54:18.980Z,8.58
2022-10-08T21:56:48.439Z,8.57
2022-10-08T21:59:18.251Z,8.51
2022-10-08T22:01:51.518Z,8.45
2022-10-08T22:04:22.772Z,8.41
2022-10-08T22:06:54.768Z,8.36
2022-10-08T22:09:26.533Z,8.32
2022-10-08T22:11:57.488Z,8.28
2022-10-08T22:14:27.444Z,8.27
2022-10-08T22:16:56.870Z,8.26
2022-10-08T22:19:26.464Z,8.27
2022-10-08T22:21:55.716Z,8.26
2022-10-08T22:24:25.396Z,8.16
2022-10-08T22:26:54.806Z,8.16
2022-10-08T22:29:24.053Z,8.18
2022-10-08T22:31:54.988Z,8.19
2022-10-08T22:34:24.273Z,8.17
2022-10-08T22:36:53.587Z,8.12
2022-10-08T22:39:22.941Z,8.16
2022-10-08T22:41:52.338Z,8.16
2022-10-08T22:44:22.116Z,8.16
2022-10-08T22:46:51.346Z,8.10
2022-10-08T22:49:20.629Z,8.07
2022-10-08T22:51:50.278Z,8.06
2022-10-08T22:54:19.812Z,8.02
2022-10-08T22:56:49.136Z,7.99
2022-10-08T22:59:18.568Z,7.96
2022-10-08T23:01:49.484Z,7.96
2022-10-08T23:04:18.914Z,7.98
2022-10-08T23:06:48.320Z,7.97
2022-10-08T23:09:17.559Z,8.00
2022-10-08T23:11:46.982Z,7.96
2022-10-08T23:14:16.175Z,7.92
2022-10-08T23:16:46.208Z,7.93
2022-10-08T23:19:16.694Z,7.91
2022-10-08T23:21:46.047Z,7.93
2022-10-08T23:24:15.245Z,7.91
2022-10-08T23:26:44.564Z,7.86
2022-10-08T23:29:13.790Z,7.83
2022-10-08T23:31:43.356Z,7.80
2022-10-08T23:34:12.738Z,7.77
2022-10-08T23:36:43.719Z,7.76
2022-10-08T23:39:16.115Z,7.75
2022-10-08T23:41:45.709Z,7.72
2022-10-08T23:44:15.074Z,7.74
2022-10-08T23:46:44.687Z,7.69
2022-10-08T23:49:14.237Z,7.68
2022-10-08T23:51:43.644Z,7.64
2022-10-08T23:54:12.888Z,7.63
2022-10-08T23:56:42.323Z,7.62
2022-10-08T23:59:11.656Z,7.59
